Аэропорт: Витебск Восточный. Витебск

ICAO: UMII

METAR:
Информация по данной станции не доступна
METAR:
2021-01-24 14:07:00
TAF UMII 241407Z 2415/2424 14004G09MPS 2000 BR BKN004 TEMPO 2415/2424 0500 DZ FG VV002